createdAt,value
2022-08-22T00:00:13.970Z,14.30
2022-08-22T00:02:53.349Z,19.10
2022-08-22T00:02:54.635Z,15.70
2022-08-22T00:03:00.352Z,17.00
2022-08-22T00:03:00.888Z,20.00
2022-08-22T00:03:08.058Z,15.40
2022-08-22T00:03:10.729Z,15.40
2022-08-22T00:03:25.822Z,14.30
2022-08-22T00:06:20.429Z,14.30
2022-08-22T00:09:08.684Z,14.20
2022-08-22T00:12:37.029Z,14.20
2022-08-22T00:15:42.225Z,14.20
2022-08-22T00:18:13.952Z,14.10
2022-08-22T00:20:45.873Z,14.10
2022-08-22T00:23:27.806Z,14.00
2022-08-22T00:26:14.026Z,14.00
2022-08-22T00:28:47.121Z,14.00
2022-08-22T00:31:42.524Z,13.90
2022-08-22T00:34:17.116Z,13.80
2022-08-22T00:37:11.777Z,13.80
2022-08-22T00:40:13.660Z,13.70
2022-08-22T00:42:55.784Z,13.70
2022-08-22T00:46:09.121Z,13.60
2022-08-22T00:49:22.931Z,13.60
2022-08-22T00:52:10.847Z,13.50
2022-08-22T00:55:03.662Z,13.40
2022-08-22T00:57:48.529Z,13.40
2022-08-22T01:00:52.643Z,13.40
2022-08-22T01:03:28.740Z,13.30
2022-08-22T01:06:04.956Z,13.30
2022-08-22T01:09:07.353Z,13.20
2022-08-22T01:11:59.997Z,13.10
2022-08-22T01:14:59.617Z,13.10
2022-08-22T01:18:04.423Z,13.10
2022-08-22T01:21:04.325Z,13.00
2022-08-22T01:23:50.688Z,13.00
2022-08-22T01:26:55.665Z,13.00
2022-08-22T01:29:39.153Z,12.80
2022-08-22T01:32:24.486Z,12.80
2022-08-22T01:34:54.282Z,12.70
2022-08-22T01:37:27.103Z,12.70
2022-08-22T01:40:25.725Z,12.60
2022-08-22T01:43:12.101Z,12.60
2022-08-22T01:46:02.937Z,12.60
2022-08-22T01:48:49.596Z,12.50
2022-08-22T01:51:32.980Z,12.50
2022-08-22T01:54:49.132Z,12.50
2022-08-22T01:57:19.191Z,12.50
2022-08-22T01:59:57.542Z,12.40
2022-08-22T02:03:03.394Z,12.40
2022-08-22T02:05:53.389Z,12.30
2022-08-22T02:08:50.397Z,12.30
2022-08-22T02:11:49.525Z,12.20
2022-08-22T02:14:33.777Z,12.20
2022-08-22T02:17:25.990Z,12.20
2022-08-22T02:20:25.018Z,12.20
2022-08-22T02:23:30.614Z,12.10
2022-08-22T02:26:03.552Z,12.10
2022-08-22T02:28:32.962Z,12.10
2022-08-22T02:31:06.939Z,12.00
2022-08-22T02:33:45.686Z,12.00
2022-08-22T02:36:25.138Z,12.10
2022-08-22T02:39:37.518Z,12.10
2022-08-22T02:42:47.669Z,11.90
2022-08-22T02:45:39.074Z,11.90
2022-08-22T02:48:50.691Z,11.80
2022-08-22T02:51:43.266Z,11.80
2022-08-22T02:54:52.079Z,11.80
2022-08-22T02:57:39.432Z,11.60
2022-08-22T03:00:30.709Z,11.50
2022-08-22T03:03:26.516Z,11.40
2022-08-22T03:06:02.973Z,11.40
2022-08-22T03:08:47.304Z,11.30
2022-08-22T03:11:31.654Z,11.30
2022-08-22T03:14:18.630Z,11.30
2022-08-22T03:16:58.233Z,11.40
2022-08-22T03:20:21.457Z,11.30
2022-08-22T03:23:05.298Z,11.30
2022-08-22T03:25:46.056Z,11.20
2022-08-22T03:28:26.788Z,11.20
2022-08-22T03:31:06.987Z,11.10
2022-08-22T03:33:34.277Z,11.10
2022-08-22T03:36:06.492Z,11.10
2022-08-22T03:38:33.220Z,11.00
2022-08-22T03:41:27.413Z,11.10
2022-08-22T03:44:35.608Z,11.10
2022-08-22T03:47:05.075Z,11.10
2022-08-22T03:50:10.657Z,11.00
2022-08-22T03:53:10.294Z,10.90
2022-08-22T03:56:39.101Z,10.80
2022-08-22T03:59:22.016Z,10.80
2022-08-22T04:02:02.173Z,10.70
2022-08-22T04:05:15.196Z,10.70
2022-08-22T04:08:07.296Z,10.60
2022-08-22T04:10:56.394Z,10.50
2022-08-22T04:13:58.404Z,10.50
2022-08-22T04:17:01.191Z,10.50
2022-08-22T04:20:13.059Z,10.40
2022-08-22T04:23:30.906Z,10.40
2022-08-22T04:26:41.487Z,10.40
2022-08-22T04:29:28.051Z,10.40
2022-08-22T04:32:19.805Z,10.40
2022-08-22T04:35:02.941Z,10.40
2022-08-22T04:37:51.339Z,10.40
2022-08-22T04:40:36.902Z,10.40
2022-08-22T04:43:13.210Z,10.40
2022-08-22T04:45:52.063Z,10.40
2022-08-22T04:48:29.895Z,10.40
2022-08-22T04:51:33.788Z,10.40
2022-08-22T04:54:38.172Z,10.50
2022-08-22T04:57:54.245Z,10.60
2022-08-22T05:00:21.614Z,10.60
2022-08-22T05:02:55.971Z,10.70
2022-08-22T05:05:38.760Z,10.80
2022-08-22T05:08:13.257Z,10.90
2022-08-22T05:10:47.288Z,11.00
2022-08-22T05:13:23.028Z,11.30
2022-08-22T05:15:56.902Z,11.80
2022-08-22T05:18:32.180Z,12.40
2022-08-22T05:21:07.606Z,13.00
2022-08-22T05:23:53.293Z,13.70
2022-08-22T05:26:21.795Z,14.50
2022-08-22T05:28:56.427Z,15.10
2022-08-22T05:31:34.772Z,15.60
2022-08-22T05:34:19.272Z,15.80
2022-08-22T05:36:57.222Z,16.10
2022-08-22T05:39:28.247Z,16.60
2022-08-22T05:41:58.640Z,17.30
2022-08-22T05:44:37.569Z,17.80
2022-08-22T05:47:46.424Z,18.30
2022-08-22T05:50:51.025Z,18.80
2022-08-22T05:53:37.143Z,19.30
2022-08-22T05:56:19.312Z,19.80
2022-08-22T05:58:55.272Z,20.40
2022-08-22T06:01:37.863Z,20.80
2022-08-22T06:04:29.592Z,21.20
2022-08-22T06:07:18.817Z,21.50
2022-08-22T06:09:48.315Z,21.70
2022-08-22T06:12:39.336Z,21.80
2022-08-22T06:15:21.057Z,21.90
2022-08-22T06:17:56.557Z,22.20
2022-08-22T06:20:42.660Z,22.50
2022-08-22T06:23:24.865Z,23.00
2022-08-22T06:25:57.521Z,23.50
2022-08-22T06:28:38.946Z,24.00
2022-08-22T06:31:35.860Z,24.50
2022-08-22T06:34:17.305Z,25.00
2022-08-22T06:36:49.592Z,25.40
2022-08-22T06:39:30.375Z,25.50
2022-08-22T06:42:11.211Z,25.70
2022-08-22T06:44:49.021Z,26.20
2022-08-22T06:47:37.782Z,26.70
2022-08-22T06:50:18.102Z,27.30
2022-08-22T06:53:00.642Z,27.90
2022-08-22T06:55:30.226Z,28.60
2022-08-22T06:58:04.674Z,29.10
2022-08-22T07:00:35.900Z,29.40
2022-08-22T07:03:35.085Z,29.70
2022-08-22T07:06:03.982Z,30.10
2022-08-22T07:08:39.043Z,30.70
2022-08-22T07:11:32.905Z,31.10
2022-08-22T07:14:17.290Z,31.50
2022-08-22T07:16:55.261Z,32.00
2022-08-22T07:19:37.034Z,32.10
2022-08-22T07:22:28.725Z,32.20
2022-08-22T07:25:15.103Z,32.40
2022-08-22T07:27:53.737Z,32.60
2022-08-22T07:30:27.905Z,32.40
2022-08-22T07:33:26.502Z,32.40
2022-08-22T07:36:01.737Z,32.30
2022-08-22T07:38:43.912Z,31.80
2022-08-22T07:41:29.764Z,31.50
2022-08-22T07:44:19.360Z,32.00
2022-08-22T07:47:01.734Z,32.70
2022-08-22T07:49:52.521Z,33.30
2022-08-22T07:52:21.524Z,33.60
2022-08-22T07:55:19.928Z,33.90
2022-08-22T07:58:00.593Z,34.00
2022-08-22T08:00:29.747Z,33.90
2022-08-22T08:03:07.269Z,33.90
2022-08-22T08:05:38.357Z,34.00
2022-08-22T08:08:26.465Z,33.90
2022-08-22T08:10:59.196Z,33.90
2022-08-22T08:13:35.546Z,33.90
2022-08-22T08:16:07.259Z,34.10
2022-08-22T08:18:37.400Z,34.10
2022-08-22T08:21:09.023Z,34.40
2022-08-22T08:23:45.002Z,34.40
2022-08-22T08:26:27.565Z,34.40
2022-08-22T08:28:58.433Z,34.00
2022-08-22T08:31:52.837Z,33.40
2022-08-22T08:34:25.008Z,33.30
2022-08-22T08:37:03.093Z,33.70
2022-08-22T08:39:44.623Z,33.20
2022-08-22T08:43:04.589Z,32.60
2022-08-22T08:46:17.761Z,32.50
2022-08-22T08:49:23.979Z,33.00
2022-08-22T08:52:35.573Z,33.20
2022-08-22T08:55:30.534Z,33.40
2022-08-22T08:58:17.792Z,34.00
2022-08-22T09:01:09.832Z,33.90
2022-08-22T09:04:19.939Z,33.40
2022-08-22T09:07:36.201Z,33.20
2022-08-22T09:10:16.550Z,33.30
2022-08-22T09:13:11.686Z,34.10
2022-08-22T09:15:54.947Z,34.40
2022-08-22T09:18:43.646Z,34.40
2022-08-22T09:22:14.949Z,33.90
2022-08-22T09:25:12.698Z,32.80
2022-08-22T09:28:09.693Z,31.70
2022-08-22T09:31:16.528Z,31.40
2022-08-22T09:34:10.519Z,31.60
2022-08-22T09:37:23.881Z,31.60
2022-08-22T09:40:17.661Z,30.90
2022-08-22T09:43:21.325Z,30.40
2022-08-22T09:46:20.655Z,29.80
2022-08-22T09:49:13.061Z,29.60
2022-08-22T09:52:15.332Z,29.60
2022-08-22T09:55:11.724Z,29.50
2022-08-22T09:58:19.672Z,29.10
2022-08-22T10:01:08.221Z,29.00
2022-08-22T10:04:14.747Z,29.60
2022-08-22T10:07:04.429Z,30.50
2022-08-22T10:10:05.297Z,30.60
2022-08-22T10:12:47.609Z,31.30
2022-08-22T10:16:08.705Z,32.60
2022-08-22T10:19:11.095Z,32.00
2022-08-22T10:22:09.907Z,30.40
2022-08-22T10:24:51.730Z,29.40
2022-08-22T10:27:48.881Z,28.70
2022-08-22T10:30:51.061Z,28.10
2022-08-22T10:33:42.128Z,27.50
2022-08-22T10:36:19.287Z,27.30
2022-08-22T10:38:54.529Z,27.60
2022-08-22T10:42:06.850Z,27.90
2022-08-22T10:45:36.386Z,28.30
2022-08-22T10:48:09.796Z,28.80
2022-08-22T10:50:49.140Z,28.70
2022-08-22T10:53:58.841Z,29.50
2022-08-22T10:56:43.814Z,30.80
2022-08-22T10:59:33.461Z,31.80
2022-08-22T11:02:35.568Z,31.70
2022-08-22T11:05:30.413Z,30.50
2022-08-22T11:08:30.334Z,29.50
2022-08-22T11:11:35.393Z,28.90
2022-08-22T11:14:53.921Z,29.00
2022-08-22T11:17:53.998Z,29.60
2022-08-22T11:20:57.236Z,30.00
2022-08-22T11:24:05.702Z,30.10
2022-08-22T11:26:57.093Z,30.00
2022-08-22T11:29:43.593Z,29.80
2022-08-22T11:32:28.997Z,29.60
2022-08-22T11:35:20.291Z,29.30
2022-08-22T11:37:58.853Z,29.30
2022-08-22T11:40:57.714Z,29.20
2022-08-22T11:43:49.085Z,29.20
2022-08-22T11:46:35.948Z,29.40
2022-08-22T11:49:33.929Z,29.60
2022-08-22T11:52:21.564Z,29.70
2022-08-22T11:55:33.214Z,29.80
2022-08-22T11:58:20.846Z,29.80
2022-08-22T12:01:19.680Z,29.80
2022-08-22T12:04:21.232Z,29.80
2022-08-22T12:07:03.118Z,29.70
2022-08-22T12:09:57.092Z,29.30
2022-08-22T12:12:49.613Z,29.30
2022-08-22T12:15:54.018Z,29.40
2022-08-22T12:18:52.851Z,29.60
2022-08-22T12:22:07.452Z,29.50
2022-08-22T12:24:50.621Z,29.30
2022-08-22T12:27:39.588Z,29.00
2022-08-22T12:30:33.252Z,28.70
2022-08-22T12:33:26.607Z,28.50
2022-08-22T12:36:05.328Z,28.60
2022-08-22T12:38:50.489Z,29.00
2022-08-22T12:41:36.098Z,29.40
2022-08-22T12:44:06.197Z,29.80
2022-08-22T12:47:23.527Z,30.00
2022-08-22T12:49:59.120Z,30.30
2022-08-22T12:52:44.707Z,30.70
2022-08-22T12:55:27.417Z,30.90
2022-08-22T12:58:18.949Z,30.90
2022-08-22T13:00:48.567Z,30.70
2022-08-22T13:03:36.164Z,30.60
2022-08-22T13:06:35.774Z,30.70
2022-08-22T13:09:19.836Z,30.60
2022-08-22T13:12:14.071Z,30.40
2022-08-22T13:14:54.552Z,30.20
2022-08-22T13:17:24.018Z,30.10
2022-08-22T13:19:59.319Z,30.00
2022-08-22T13:22:32.582Z,29.80
2022-08-22T13:25:25.815Z,29.80
2022-08-22T13:28:11.661Z,29.90
2022-08-22T13:30:42.231Z,29.90
2022-08-22T13:33:28.609Z,29.90
2022-08-22T13:36:15.522Z,29.80
2022-08-22T13:38:58.852Z,29.80
2022-08-22T13:41:47.653Z,29.90
2022-08-22T13:44:27.365Z,30.00
2022-08-22T13:47:14.198Z,30.10
2022-08-22T13:49:53.195Z,30.20
2022-08-22T13:52:30.195Z,30.30
2022-08-22T13:55:43.207Z,30.30
2022-08-22T13:58:36.721Z,30.50
2022-08-22T14:01:25.302Z,30.50
2022-08-22T14:04:33.455Z,30.30
2022-08-22T14:07:05.992Z,30.00
2022-08-22T14:09:35.749Z,30.00
2022-08-22T14:12:23.319Z,30.00
2022-08-22T14:14:59.451Z,30.10
2022-08-22T14:17:42.993Z,30.10
2022-08-22T14:20:32.680Z,29.90
2022-08-22T14:23:29.208Z,29.70
2022-08-22T14:25:57.284Z,29.50
2022-08-22T14:28:35.642Z,29.30
2022-08-22T14:31:14.311Z,29.20
2022-08-22T14:34:10.442Z,29.10
2022-08-22T14:36:54.073Z,28.90
2022-08-22T14:39:30.432Z,28.80
2022-08-22T14:42:24.473Z,28.70
2022-08-22T14:45:17.197Z,28.80
2022-08-22T14:48:31.578Z,28.70
2022-08-22T14:51:05.850Z,28.50
2022-08-22T14:53:39.273Z,28.30
2022-08-22T14:56:13.712Z,28.20
2022-08-22T14:58:58.975Z,28.20
2022-08-22T15:01:33.078Z,28.10
2022-08-22T15:04:10.077Z,28.00
2022-08-22T15:06:47.659Z,27.90
2022-08-22T15:10:15.901Z,27.70
2022-08-22T15:12:53.902Z,27.50
2022-08-22T15:15:53.558Z,27.30
2022-08-22T15:18:28.053Z,27.20
2022-08-22T15:21:11.246Z,27.10
2022-08-22T15:23:45.093Z,27.00
2022-08-22T15:26:40.130Z,26.80
2022-08-22T15:29:31.121Z,26.70
2022-08-22T15:32:02.297Z,26.50
2022-08-22T15:34:40.927Z,26.40
2022-08-22T15:37:19.814Z,26.30
2022-08-22T15:40:08.163Z,26.20
2022-08-22T15:42:50.072Z,26.20
2022-08-22T15:45:53.353Z,26.10
2022-08-22T15:48:36.282Z,26.10
2022-08-22T15:51:13.280Z,26.10
2022-08-22T15:53:43.026Z,26.00
2022-08-22T15:56:12.938Z,26.00
2022-08-22T15:58:52.548Z,26.10
2022-08-22T16:01:22.728Z,26.20
2022-08-22T16:04:12.365Z,26.10
2022-08-22T16:06:54.410Z,26.20
2022-08-22T16:09:47.570Z,26.20
2022-08-22T16:12:29.577Z,26.30
2022-08-22T16:14:57.448Z,26.40
2022-08-22T16:17:30.036Z,26.40
2022-08-22T16:20:10.038Z,26.30
2022-08-22T16:22:59.014Z,26.30
2022-08-22T16:25:44.768Z,26.20
2022-08-22T16:28:57.289Z,26.20
2022-08-22T16:31:38.640Z,26.10
2022-08-22T16:34:20.337Z,26.00
2022-08-22T16:37:08.271Z,25.90
2022-08-22T16:39:58.790Z,25.80
2022-08-22T16:42:46.372Z,25.60
2022-08-22T16:45:34.441Z,25.50
2022-08-22T16:48:39.470Z,25.40
2022-08-22T16:51:18.390Z,25.30
2022-08-22T16:54:08.835Z,25.20
2022-08-22T16:57:00.296Z,25.10
2022-08-22T17:00:22.804Z,25.00
2022-08-22T17:03:24.361Z,24.80
2022-08-22T17:06:20.648Z,24.60
2022-08-22T17:09:17.404Z,24.40
2022-08-22T17:12:13.969Z,24.30
2022-08-22T17:15:31.931Z,24.20
2022-08-22T17:18:53.223Z,24.30
2022-08-22T17:21:25.450Z,24.30
2022-08-22T17:24:02.208Z,24.40
2022-08-22T17:26:56.165Z,24.40
2022-08-22T17:30:00.427Z,24.40
2022-08-22T17:32:33.270Z,24.50
2022-08-22T17:35:36.508Z,24.50
2022-08-22T17:38:33.842Z,24.40
2022-08-22T17:41:24.609Z,24.40
2022-08-22T17:44:24.627Z,24.40
2022-08-22T17:47:06.053Z,24.40
2022-08-22T17:49:41.570Z,24.40
2022-08-22T17:52:29.620Z,24.30
2022-08-22T17:55:06.022Z,24.30
2022-08-22T17:57:44.335Z,24.20
2022-08-22T18:00:47.557Z,24.30
2022-08-22T18:03:34.081Z,24.20
2022-08-22T18:06:27.552Z,24.20
2022-08-22T18:09:20.855Z,24.20
2022-08-22T18:12:07.977Z,24.10
2022-08-22T18:14:55.352Z,24.00
2022-08-22T18:17:38.613Z,24.00
2022-08-22T18:20:51.507Z,24.00
2022-08-22T18:23:36.288Z,24.00
2022-08-22T18:26:44.481Z,23.90
2022-08-22T18:29:20.020Z,23.80
2022-08-22T18:32:16.093Z,23.70
2022-08-22T18:34:56.271Z,23.70
2022-08-22T18:37:53.322Z,23.50
2022-08-22T18:41:31.478Z,23.40
2022-08-22T18:43:59.681Z,23.30
2022-08-22T18:46:38.003Z,23.10
2022-08-22T18:49:19.805Z,22.90
2022-08-22T18:52:08.267Z,22.80
2022-08-22T18:54:37.773Z,22.80
2022-08-22T18:57:59.801Z,22.70
2022-08-22T19:00:38.929Z,22.50
2022-08-22T19:03:50.328Z,22.40
2022-08-22T19:06:52.823Z,22.30
2022-08-22T19:10:02.920Z,22.20
2022-08-22T19:12:57.518Z,22.10
2022-08-22T19:15:46.873Z,21.90
2022-08-22T19:18:29.005Z,21.80
2022-08-22T19:21:41.880Z,21.60
2022-08-22T19:24:19.997Z,21.50
2022-08-22T19:27:09.894Z,21.40
2022-08-22T19:29:36.649Z,21.30
2022-08-22T19:32:13.577Z,21.20
2022-08-22T19:34:47.649Z,21.20
2022-08-22T19:37:32.814Z,21.20
2022-08-22T19:40:11.852Z,21.20
2022-08-22T19:42:42.007Z,21.20
2022-08-22T19:45:27.082Z,21.20
2022-08-22T19:48:14.686Z,21.20
2022-08-22T19:50:43.223Z,21.10
2022-08-22T19:53:32.439Z,21.00
2022-08-22T19:56:21.228Z,20.90
2022-08-22T19:59:12.174Z,20.80
2022-08-22T20:01:56.169Z,20.80
2022-08-22T20:05:18.438Z,20.70
2022-08-22T20:08:06.357Z,20.60
2022-08-22T20:11:26.996Z,20.60
2022-08-22T20:14:16.657Z,20.50
2022-08-22T20:17:21.239Z,20.40
2022-08-22T20:22:49.655Z,20.10
2022-08-22T20:25:43.079Z,19.90
2022-08-22T20:28:35.134Z,19.80
2022-08-22T20:31:11.002Z,19.80
2022-08-22T20:33:43.771Z,19.80
2022-08-22T20:36:27.412Z,19.80
2022-08-22T20:39:10.264Z,19.80
2022-08-22T20:41:46.154Z,19.80
2022-08-22T20:44:21.653Z,19.80
2022-08-22T20:46:53.361Z,19.80
2022-08-22T20:49:28.690Z,19.80
2022-08-22T20:52:02.036Z,19.80
2022-08-22T20:54:34.083Z,19.80
2022-08-22T20:57:20.059Z,19.80
2022-08-22T21:00:12.487Z,19.80
2022-08-22T21:02:53.141Z,19.90
2022-08-22T21:05:32.558Z,19.90
2022-08-22T21:08:14.282Z,19.90
2022-08-22T21:11:00.640Z,19.90
2022-08-22T21:13:35.804Z,19.90
2022-08-22T21:16:15.632Z,19.90
2022-08-22T21:18:49.813Z,19.90
2022-08-22T21:21:22.653Z,19.80
2022-08-22T21:24:03.798Z,19.90
2022-08-22T21:26:37.121Z,19.90
2022-08-22T21:29:03.848Z,19.80
2022-08-22T21:31:50.180Z,19.80
2022-08-22T21:34:31.856Z,19.80
2022-08-22T21:37:23.938Z,19.80
2022-08-22T21:40:04.506Z,19.70
2022-08-22T21:42:40.758Z,19.70
2022-08-22T21:45:11.694Z,19.70
2022-08-22T21:47:42.306Z,19.70
2022-08-22T21:50:27.536Z,19.70
2022-08-22T21:53:10.286Z,19.60
2022-08-22T21:55:44.572Z,19.60
2022-08-22T21:58:35.471Z,19.50
2022-08-22T22:01:32.725Z,19.50
2022-08-22T22:04:00.109Z,19.50
2022-08-22T22:06:27.763Z,19.50
2022-08-22T22:08:55.307Z,19.60
2022-08-22T22:11:22.275Z,19.40
2022-08-22T22:13:49.068Z,19.40
2022-08-22T22:16:26.041Z,19.40
2022-08-22T22:18:52.937Z,19.40
2022-08-22T22:21:20.469Z,19.40
2022-08-22T22:23:47.378Z,19.40
2022-08-22T22:26:14.526Z,19.30
2022-08-22T22:28:47.575Z,19.30
2022-08-22T22:31:18.132Z,19.30
2022-08-22T22:33:45.504Z,19.40
2022-08-22T22:36:24.036Z,19.20
2022-08-22T22:38:52.589Z,19.20
2022-08-22T22:41:25.150Z,19.10
2022-08-22T22:43:54.680Z,19.10
2022-08-22T22:46:22.530Z,19.10
2022-08-22T22:48:50.279Z,19.10
2022-08-22T22:51:17.095Z,19.10
2022-08-22T22:53:44.886Z,19.10
2022-08-22T22:56:17.677Z,19.10
2022-08-22T22:58:49.268Z,19.10
2022-08-22T23:01:23.947Z,19.10
2022-08-22T23:03:56.821Z,19.00
2022-08-22T23:06:27.010Z,19.00
2022-08-22T23:08:55.022Z,19.00
2022-08-22T23:11:28.221Z,19.00
2022-08-22T23:13:56.239Z,18.90
2022-08-22T23:16:27.209Z,18.90
2022-08-22T23:18:55.108Z,18.90
2022-08-22T23:21:29.801Z,18.90
2022-08-22T23:23:59.207Z,18.90
2022-08-22T23:26:28.266Z,18.90
2022-08-22T23:28:56.423Z,18.90
2022-08-22T23:31:40.265Z,18.90
2022-08-22T23:34:12.709Z,18.90
2022-08-22T23:36:46.217Z,18.90
2022-08-22T23:39:15.606Z,18.90
2022-08-22T23:41:43.224Z,18.90
2022-08-22T23:44:14.029Z,18.80
2022-08-22T23:46:43.061Z,18.80
2022-08-22T23:49:11.101Z,18.80
2022-08-22T23:51:39.321Z,18.80
2022-08-22T23:54:06.834Z,18.70
2022-08-22T23:56:51.691Z,18.70
2022-08-22T23:59:24.643Z,18.70
